sensor_id;sensor_type;location;lat;lon;timestamp;P1;durP1;ratioP1;P2;durP2;ratioP2
32705;SDS011;19094;50.972;3.538;2023-04-24T00:00:22;17.10;;;8.25;;
32705;SDS011;19094;50.972;3.538;2023-04-24T00:02:48;16.98;;;8.55;;
32705;SDS011;19094;50.972;3.538;2023-04-24T00:05:15;16.42;;;7.90;;
32705;SDS011;19094;50.972;3.538;2023-04-24T00:07:43;19.35;;;8.77;;
32705;SDS011;19094;50.972;3.538;2023-04-24T00:10:09;17.75;;;7.82;;
32705;SDS011;19094;50.972;3.538;2023-04-24T00:12:36;17.40;;;8.80;;
32705;SDS011;19094;50.972;3.538;2023-04-24T00:15:02;15.48;;;8.65;;
32705;SDS011;19094;50.972;3.538;2023-04-24T00:17:28;14.40;;;8.13;;
32705;SDS011;19094;50.972;3.538;2023-04-24T00:19:54;15.70;;;8.90;;
32705;SDS011;19094;50.972;3.538;2023-04-24T00:22:27;18.15;;;8.13;;
32705;SDS011;19094;50.972;3.538;2023-04-24T00:24:53;20.52;;;9.90;;
32705;SDS011;19094;50.972;3.538;2023-04-24T00:27:19;14.30;;;8.80;;
32705;SDS011;19094;50.972;3.538;2023-04-24T00:29:45;12.95;;;7.38;;
32705;SDS011;19094;50.972;3.538;2023-04-24T00:32:10;10.98;;;6.60;;
32705;SDS011;19094;50.972;3.538;2023-04-24T00:34:36;12.45;;;6.63;;
32705;SDS011;19094;50.972;3.538;2023-04-24T00:37:02;13.25;;;7.00;;
32705;SDS011;19094;50.972;3.538;2023-04-24T00:39:28;10.35;;;5.57;;
32705;SDS011;19094;50.972;3.538;2023-04-24T00:41:54;7.85;;;5.55;;
32705;SDS011;19094;50.972;3.538;2023-04-24T00:44:20;12.90;;;5.55;;
32705;SDS011;19094;50.972;3.538;2023-04-24T00:46:46;10.23;;;5.95;;
32705;SDS011;19094;50.972;3.538;2023-04-24T00:49:16;8.35;;;5.75;;
32705;SDS011;19094;50.972;3.538;2023-04-24T00:51:43;8.32;;;4.78;;
32705;SDS011;19094;50.972;3.538;2023-04-24T00:54:10;8.70;;;5.55;;
32705;SDS011;19094;50.972;3.538;2023-04-24T00:56:36;8.90;;;5.57;;
32705;SDS011;19094;50.972;3.538;2023-04-24T00:59:02;8.27;;;5.20;;
32705;SDS011;19094;50.972;3.538;2023-04-24T01:01:29;8.70;;;5.70;;
32705;SDS011;19094;50.972;3.538;2023-04-24T01:03:55;8.93;;;4.88;;
32705;SDS011;19094;50.972;3.538;2023-04-24T01:06:22;8.07;;;5.22;;
32705;SDS011;19094;50.972;3.538;2023-04-24T01:08:52;8.95;;;4.90;;
32705;SDS011;19094;50.972;3.538;2023-04-24T01:11:18;6.68;;;4.55;;
32705;SDS011;19094;50.972;3.538;2023-04-24T01:13:44;8.82;;;5.18;;
32705;SDS011;19094;50.972;3.538;2023-04-24T01:16:10;9.38;;;5.03;;
32705;SDS011;19094;50.972;3.538;2023-04-24T01:18:36;12.65;;;6.00;;
32705;SDS011;19094;50.972;3.538;2023-04-24T01:21:03;9.82;;;5.03;;
32705;SDS011;19094;50.972;3.538;2023-04-24T01:23:29;8.75;;;5.00;;
32705;SDS011;19094;50.972;3.538;2023-04-24T01:25:55;8.25;;;5.63;;
32705;SDS011;19094;50.972;3.538;2023-04-24T01:28:21;11.50;;;6.03;;
32705;SDS011;19094;50.972;3.538;2023-04-24T01:30:47;10.50;;;6.50;;
32705;SDS011;19094;50.972;3.538;2023-04-24T01:33:13;11.60;;;6.88;;
32705;SDS011;19094;50.972;3.538;2023-04-24T01:35:39;11.93;;;6.03;;
32705;SDS011;19094;50.972;3.538;2023-04-24T01:38:05;12.55;;;7.00;;
32705;SDS011;19094;50.972;3.538;2023-04-24T01:40:31;10.18;;;6.53;;
32705;SDS011;19094;50.972;3.538;2023-04-24T01:42:57;12.70;;;7.43;;
32705;SDS011;19094;50.972;3.538;2023-04-24T01:45:23;11.88;;;7.07;;
32705;SDS011;19094;50.972;3.538;2023-04-24T01:47:49;10.35;;;6.60;;
32705;SDS011;19094;50.972;3.538;2023-04-24T01:50:15;13.82;;;7.35;;
32705;SDS011;19094;50.972;3.538;2023-04-24T01:52:41;13.98;;;8.15;;
32705;SDS011;19094;50.972;3.538;2023-04-24T01:55:07;14.02;;;8.55;;
32705;SDS011;19094;50.972;3.538;2023-04-24T01:57:33;14.18;;;8.32;;
32705;SDS011;19094;50.972;3.538;2023-04-24T01:59:59;15.63;;;8.45;;
32705;SDS011;19094;50.972;3.538;2023-04-24T02:02:25;11.85;;;7.93;;
32705;SDS011;19094;50.972;3.538;2023-04-24T02:04:52;14.48;;;7.97;;
32705;SDS011;19094;50.972;3.538;2023-04-24T02:07:19;13.52;;;8.70;;
32705;SDS011;19094;50.972;3.538;2023-04-24T02:09:44;13.80;;;8.38;;
32705;SDS011;19094;50.972;3.538;2023-04-24T02:12:10;16.00;;;8.65;;
32705;SDS011;19094;50.972;3.538;2023-04-24T02:14:36;15.80;;;9.43;;
32705;SDS011;19094;50.972;3.538;2023-04-24T02:17:01;14.68;;;9.10;;
32705;SDS011;19094;50.972;3.538;2023-04-24T02:19:27;13.85;;;9.32;;
32705;SDS011;19094;50.972;3.538;2023-04-24T02:21:53;18.58;;;9.18;;
32705;SDS011;19094;50.972;3.538;2023-04-24T02:24:18;14.57;;;9.57;;
32705;SDS011;19094;50.972;3.538;2023-04-24T02:26:44;14.70;;;9.18;;
32705;SDS011;19094;50.972;3.538;2023-04-24T02:29:10;8.68;;;5.80;;
32705;SDS011;19094;50.972;3.538;2023-04-24T02:31:35;10.90;;;6.45;;
32705;SDS011;19094;50.972;3.538;2023-04-24T02:34:01;11.18;;;6.32;;
32705;SDS011;19094;50.972;3.538;2023-04-24T02:36:27;11.27;;;5.90;;
32705;SDS011;19094;50.972;3.538;2023-04-24T02:38:52;11.43;;;5.28;;
32705;SDS011;19094;50.972;3.538;2023-04-24T02:41:18;10.05;;;5.28;;
32705;SDS011;19094;50.972;3.538;2023-04-24T02:43:44;6.05;;;4.30;;
32705;SDS011;19094;50.972;3.538;2023-04-24T02:46:10;11.20;;;4.75;;
32705;SDS011;19094;50.972;3.538;2023-04-24T02:48:36;9.32;;;5.00;;
32705;SDS011;19094;50.972;3.538;2023-04-24T02:51:01;9.15;;;3.83;;
32705;SDS011;19094;50.972;3.538;2023-04-24T02:53:28;7.82;;;4.20;;
32705;SDS011;19094;50.972;3.538;2023-04-24T02:55:55;9.07;;;3.42;;
32705;SDS011;19094;50.972;3.538;2023-04-24T02:58:21;8.15;;;3.67;;
32705;SDS011;19094;50.972;3.538;2023-04-24T03:00:47;13.55;;;4.35;;
32705;SDS011;19094;50.972;3.538;2023-04-24T03:03:13;8.23;;;3.78;;
32705;SDS011;19094;50.972;3.538;2023-04-24T03:05:39;9.00;;;3.47;;
32705;SDS011;19094;50.972;3.538;2023-04-24T03:08:04;8.95;;;3.50;;
32705;SDS011;19094;50.972;3.538;2023-04-24T03:10:31;11.77;;;3.88;;
32705;SDS011;19094;50.972;3.538;2023-04-24T03:12:57;11.38;;;4.00;;
32705;SDS011;19094;50.972;3.538;2023-04-24T03:15:22;7.15;;;3.90;;
32705;SDS011;19094;50.972;3.538;2023-04-24T03:17:48;11.70;;;4.15;;
32705;SDS011;19094;50.972;3.538;2023-04-24T03:20:14;11.82;;;4.78;;
32705;SDS011;19094;50.972;3.538;2023-04-24T03:22:39;13.45;;;4.85;;
32705;SDS011;19094;50.972;3.538;2023-04-24T03:25:05;13.38;;;5.30;;
32705;SDS011;19094;50.972;3.538;2023-04-24T03:27:33;13.05;;;5.60;;
32705;SDS011;19094;50.972;3.538;2023-04-24T03:29:58;13.32;;;5.10;;
32705;SDS011;19094;50.972;3.538;2023-04-24T03:32:25;15.27;;;6.18;;
32705;SDS011;19094;50.972;3.538;2023-04-24T03:34:51;12.25;;;6.25;;
32705;SDS011;19094;50.972;3.538;2023-04-24T03:37:17;19.10;;;7.50;;
32705;SDS011;19094;50.972;3.538;2023-04-24T03:39:42;18.15;;;7.10;;
32705;SDS011;19094;50.972;3.538;2023-04-24T03:42:08;17.00;;;7.35;;
32705;SDS011;19094;50.972;3.538;2023-04-24T03:44:35;18.25;;;8.20;;
32705;SDS011;19094;50.972;3.538;2023-04-24T03:47:01;19.75;;;9.15;;
32705;SDS011;19094;50.972;3.538;2023-04-24T03:49:26;17.77;;;8.52;;
32705;SDS011;19094;50.972;3.538;2023-04-24T03:51:52;22.73;;;8.63;;
32705;SDS011;19094;50.972;3.538;2023-04-24T03:54:18;20.98;;;8.60;;
32705;SDS011;19094;50.972;3.538;2023-04-24T03:56:44;26.45;;;9.18;;
32705;SDS011;19094;50.972;3.538;2023-04-24T03:59:10;22.42;;;9.48;;
32705;SDS011;19094;50.972;3.538;2023-04-24T04:01:35;30.38;;;9.55;;
32705;SDS011;19094;50.972;3.538;2023-04-24T04:04:02;24.50;;;9.38;;
32705;SDS011;19094;50.972;3.538;2023-04-24T04:06:29;22.02;;;10.10;;
32705;SDS011;19094;50.972;3.538;2023-04-24T04:08:56;21.08;;;9.30;;
32705;SDS011;19094;50.972;3.538;2023-04-24T04:11:22;22.92;;;9.13;;
32705;SDS011;19094;50.972;3.538;2023-04-24T04:13:48;21.02;;;8.93;;
32705;SDS011;19094;50.972;3.538;2023-04-24T04:16:14;23.08;;;9.45;;
32705;SDS011;19094;50.972;3.538;2023-04-24T04:18:42;25.25;;;9.15;;
32705;SDS011;19094;50.972;3.538;2023-04-24T04:21:08;17.23;;;8.55;;
32705;SDS011;19094;50.972;3.538;2023-04-24T04:23:33;21.73;;;8.00;;
32705;SDS011;19094;50.972;3.538;2023-04-24T04:25:59;27.63;;;9.18;;
32705;SDS011;19094;50.972;3.538;2023-04-24T04:28:26;23.58;;;8.75;;
32705;SDS011;19094;50.972;3.538;2023-04-24T04:30:52;21.15;;;8.93;;
32705;SDS011;19094;50.972;3.538;2023-04-24T04:33:19;22.40;;;8.05;;
32705;SDS011;19094;50.972;3.538;2023-04-24T04:35:45;17.25;;;7.70;;
32705;SDS011;19094;50.972;3.538;2023-04-24T04:38:14;17.95;;;8.02;;
32705;SDS011;19094;50.972;3.538;2023-04-24T04:40:42;17.42;;;8.30;;
32705;SDS011;19094;50.972;3.538;2023-04-24T04:43:07;17.42;;;7.82;;
32705;SDS011;19094;50.972;3.538;2023-04-24T04:45:33;18.20;;;7.38;;
32705;SDS011;19094;50.972;3.538;2023-04-24T04:47:59;25.88;;;10.00;;
32705;SDS011;19094;50.972;3.538;2023-04-24T04:50:27;23.13;;;7.68;;
32705;SDS011;19094;50.972;3.538;2023-04-24T04:52:52;17.08;;;8.23;;
32705;SDS011;19094;50.972;3.538;2023-04-24T04:55:18;18.27;;;7.93;;
32705;SDS011;19094;50.972;3.538;2023-04-24T04:57:46;16.88;;;7.80;;
32705;SDS011;19094;50.972;3.538;2023-04-24T05:00:12;16.67;;;7.85;;
32705;SDS011;19094;50.972;3.538;2023-04-24T05:02:39;15.07;;;8.23;;
32705;SDS011;19094;50.972;3.538;2023-04-24T05:05:05;16.20;;;8.35;;
32705;SDS011;19094;50.972;3.538;2023-04-24T05:07:32;17.30;;;8.27;;
32705;SDS011;19094;50.972;3.538;2023-04-24T05:09:58;21.65;;;8.40;;
32705;SDS011;19094;50.972;3.538;2023-04-24T05:12:23;19.98;;;8.52;;
32705;SDS011;19094;50.972;3.538;2023-04-24T05:14:49;19.10;;;8.93;;
32705;SDS011;19094;50.972;3.538;2023-04-24T05:17:15;19.17;;;8.35;;
32705;SDS011;19094;50.972;3.538;2023-04-24T05:19:41;23.90;;;9.05;;
32705;SDS011;19094;50.972;3.538;2023-04-24T05:22:07;28.55;;;11.85;;
32705;SDS011;19094;50.972;3.538;2023-04-24T05:24:34;25.90;;;10.90;;
32705;SDS011;19094;50.972;3.538;2023-04-24T05:27:01;27.50;;;11.50;;
32705;SDS011;19094;50.972;3.538;2023-04-24T05:29:29;24.08;;;10.00;;
32705;SDS011;19094;50.972;3.538;2023-04-24T05:31:58;25.25;;;10.30;;
32705;SDS011;19094;50.972;3.538;2023-04-24T05:34:25;30.35;;;11.38;;
32705;SDS011;19094;50.972;3.538;2023-04-24T05:36:52;22.88;;;10.77;;
32705;SDS011;19094;50.972;3.538;2023-04-24T05:39:18;21.30;;;10.63;;
32705;SDS011;19094;50.972;3.538;2023-04-24T05:41:44;32.03;;;13.57;;
32705;SDS011;19094;50.972;3.538;2023-04-24T05:44:10;27.50;;;12.20;;
32705;SDS011;19094;50.972;3.538;2023-04-24T05:46:36;26.55;;;11.38;;
32705;SDS011;19094;50.972;3.538;2023-04-24T05:49:02;28.75;;;12.25;;
32705;SDS011;19094;50.972;3.538;2023-04-24T05:51:27;35.05;;;13.32;;
32705;SDS011;19094;50.972;3.538;2023-04-24T05:53:53;32.13;;;11.65;;
32705;SDS011;19094;50.972;3.538;2023-04-24T05:56:19;32.63;;;13.32;;
32705;SDS011;19094;50.972;3.538;2023-04-24T05:58:45;28.73;;;10.73;;
32705;SDS011;19094;50.972;3.538;2023-04-24T06:01:11;30.95;;;11.38;;
32705;SDS011;19094;50.972;3.538;2023-04-24T06:03:39;27.58;;;11.10;;
32705;SDS011;19094;50.972;3.538;2023-04-24T06:06:05;39.97;;;12.57;;
32705;SDS011;19094;50.972;3.538;2023-04-24T06:08:32;28.23;;;11.57;;
32705;SDS011;19094;50.972;3.538;2023-04-24T06:10:57;26.17;;;12.15;;
32705;SDS011;19094;50.972;3.538;2023-04-24T06:13:23;40.28;;;12.32;;
32705;SDS011;19094;50.972;3.538;2023-04-24T06:15:49;25.55;;;11.15;;
32705;SDS011;19094;50.972;3.538;2023-04-24T06:18:15;27.67;;;11.10;;
32705;SDS011;19094;50.972;3.538;2023-04-24T06:20:41;31.90;;;12.13;;
32705;SDS011;19094;50.972;3.538;2023-04-24T06:23:07;29.55;;;10.55;;
32705;SDS011;19094;50.972;3.538;2023-04-24T06:25:33;26.85;;;10.77;;
32705;SDS011;19094;50.972;3.538;2023-04-24T06:27:58;30.63;;;10.70;;
32705;SDS011;19094;50.972;3.538;2023-04-24T06:30:24;25.30;;;10.23;;
32705;SDS011;19094;50.972;3.538;2023-04-24T06:32:50;23.95;;;10.35;;
32705;SDS011;19094;50.972;3.538;2023-04-24T06:35:16;22.63;;;9.60;;
32705;SDS011;19094;50.972;3.538;2023-04-24T06:37:42;27.15;;;8.80;;
32705;SDS011;19094;50.972;3.538;2023-04-24T06:40:08;23.70;;;9.55;;
32705;SDS011;19094;50.972;3.538;2023-04-24T06:42:35;33.17;;;9.80;;
32705;SDS011;19094;50.972;3.538;2023-04-24T06:45:01;30.05;;;8.85;;
32705;SDS011;19094;50.972;3.538;2023-04-24T06:47:27;28.10;;;9.98;;
32705;SDS011;19094;50.972;3.538;2023-04-24T06:49:52;27.77;;;9.00;;
32705;SDS011;19094;50.972;3.538;2023-04-24T06:52:18;25.48;;;8.90;;
32705;SDS011;19094;50.972;3.538;2023-04-24T06:54:44;26.20;;;9.55;;
32705;SDS011;19094;50.972;3.538;2023-04-24T06:57:10;29.67;;;9.45;;
32705;SDS011;19094;50.972;3.538;2023-04-24T06:59:36;30.98;;;8.95;;
32705;SDS011;19094;50.972;3.538;2023-04-24T07:02:02;28.70;;;9.02;;
32705;SDS011;19094;50.972;3.538;2023-04-24T07:04:28;19.38;;;7.13;;
32705;SDS011;19094;50.972;3.538;2023-04-24T07:06:55;20.00;;;8.55;;
32705;SDS011;19094;50.972;3.538;2023-04-24T07:09:23;23.67;;;8.70;;
32705;SDS011;19094;50.972;3.538;2023-04-24T07:11:50;22.63;;;8.40;;
32705;SDS011;19094;50.972;3.538;2023-04-24T07:14:19;22.15;;;7.95;;
32705;SDS011;19094;50.972;3.538;2023-04-24T07:16:45;20.70;;;7.95;;
32705;SDS011;19094;50.972;3.538;2023-04-24T07:19:11;21.42;;;7.28;;
32705;SDS011;19094;50.972;3.538;2023-04-24T07:21:38;22.67;;;6.82;;
32705;SDS011;19094;50.972;3.538;2023-04-24T07:24:04;16.52;;;6.63;;
32705;SDS011;19094;50.972;3.538;2023-04-24T07:26:30;21.45;;;7.22;;
32705;SDS011;19094;50.972;3.538;2023-04-24T07:28:56;21.98;;;7.13;;
32705;SDS011;19094;50.972;3.538;2023-04-24T07:31:22;22.27;;;6.68;;
32705;SDS011;19094;50.972;3.538;2023-04-24T07:33:48;18.05;;;7.25;;
32705;SDS011;19094;50.972;3.538;2023-04-24T07:36:14;20.23;;;6.60;;
32705;SDS011;19094;50.972;3.538;2023-04-24T07:38:44;25.98;;;7.97;;
32705;SDS011;19094;50.972;3.538;2023-04-24T07:41:10;25.10;;;6.85;;
32705;SDS011;19094;50.972;3.538;2023-04-24T07:43:36;21.73;;;6.88;;
32705;SDS011;19094;50.972;3.538;2023-04-24T07:46:01;19.77;;;6.13;;
32705;SDS011;19094;50.972;3.538;2023-04-24T07:48:27;21.10;;;5.88;;
32705;SDS011;19094;50.972;3.538;2023-04-24T07:50:53;15.75;;;6.07;;
32705;SDS011;19094;50.972;3.538;2023-04-24T07:53:19;25.05;;;5.85;;
32705;SDS011;19094;50.972;3.538;2023-04-24T07:55:44;15.50;;;5.50;;
32705;SDS011;19094;50.972;3.538;2023-04-24T07:58:10;21.05;;;6.00;;
32705;SDS011;19094;50.972;3.538;2023-04-24T08:00:36;13.02;;;5.13;;
32705;SDS011;19094;50.972;3.538;2023-04-24T08:03:02;16.05;;;4.70;;
32705;SDS011;19094;50.972;3.538;2023-04-24T08:05:27;13.30;;;4.93;;
32705;SDS011;19094;50.972;3.538;2023-04-24T08:07:53;20.73;;;6.47;;
32705;SDS011;19094;50.972;3.538;2023-04-24T08:10:23;17.05;;;5.25;;
32705;SDS011;19094;50.972;3.538;2023-04-24T08:12:49;16.35;;;5.10;;
32705;SDS011;19094;50.972;3.538;2023-04-24T08:15:15;17.00;;;5.40;;
32705;SDS011;19094;50.972;3.538;2023-04-24T08:17:40;12.68;;;5.53;;
32705;SDS011;19094;50.972;3.538;2023-04-24T08:20:06;16.90;;;5.82;;
32705;SDS011;19094;50.972;3.538;2023-04-24T08:22:38;20.73;;;4.95;;
32705;SDS011;19094;50.972;3.538;2023-04-24T08:25:07;22.38;;;5.32;;
32705;SDS011;19094;50.972;3.538;2023-04-24T08:27:34;18.48;;;5.13;;
32705;SDS011;19094;50.972;3.538;2023-04-24T08:30:01;17.92;;;5.05;;
32705;SDS011;19094;50.972;3.538;2023-04-24T08:32:28;16.13;;;5.28;;
32705;SDS011;19094;50.972;3.538;2023-04-24T08:34:54;14.80;;;5.43;;
32705;SDS011;19094;50.972;3.538;2023-04-24T08:37:21;14.88;;;4.93;;
32705;SDS011;19094;50.972;3.538;2023-04-24T08:39:49;19.38;;;5.40;;
32705;SDS011;19094;50.972;3.538;2023-04-24T08:42:15;17.80;;;5.05;;
32705;SDS011;19094;50.972;3.538;2023-04-24T08:44:42;14.65;;;4.95;;
32705;SDS011;19094;50.972;3.538;2023-04-24T08:47:09;15.23;;;5.50;;
32705;SDS011;19094;50.972;3.538;2023-04-24T08:49:36;19.70;;;5.43;;
32705;SDS011;19094;50.972;3.538;2023-04-24T08:52:03;15.18;;;5.35;;
32705;SDS011;19094;50.972;3.538;2023-04-24T08:54:30;15.00;;;5.45;;
32705;SDS011;19094;50.972;3.538;2023-04-24T08:57:00;21.45;;;7.68;;
32705;SDS011;19094;50.972;3.538;2023-04-24T08:59:28;16.60;;;6.18;;
32705;SDS011;19094;50.972;3.538;2023-04-24T09:01:55;19.92;;;6.72;;
32705;SDS011;19094;50.972;3.538;2023-04-24T09:04:22;12.13;;;6.18;;
32705;SDS011;19094;50.972;3.538;2023-04-24T09:06:49;16.48;;;6.68;;
32705;SDS011;19094;50.972;3.538;2023-04-24T09:09:16;12.68;;;5.75;;
32705;SDS011;19094;50.972;3.538;2023-04-24T09:11:43;18.05;;;5.72;;
32705;SDS011;19094;50.972;3.538;2023-04-24T09:14:09;19.33;;;5.72;;
32705;SDS011;19094;50.972;3.538;2023-04-24T09:16:35;21.27;;;6.53;;
32705;SDS011;19094;50.972;3.538;2023-04-24T09:19:01;19.15;;;6.25;;
32705;SDS011;19094;50.972;3.538;2023-04-24T09:21:31;16.30;;;5.97;;
32705;SDS011;19094;50.972;3.538;2023-04-24T09:24:04;20.95;;;6.50;;
32705;SDS011;19094;50.972;3.538;2023-04-24T09:26:34;14.95;;;6.05;;
32705;SDS011;19094;50.972;3.538;2023-04-24T09:29:00;17.38;;;6.68;;
32705;SDS011;19094;50.972;3.538;2023-04-24T09:31:27;14.13;;;6.43;;
32705;SDS011;19094;50.972;3.538;2023-04-24T09:34:00;18.95;;;6.57;;
32705;SDS011;19094;50.972;3.538;2023-04-24T09:36:41;17.55;;;6.53;;
32705;SDS011;19094;50.972;3.538;2023-04-24T09:39:11;16.02;;;6.75;;
32705;SDS011;19094;50.972;3.538;2023-04-24T09:41:50;18.40;;;7.82;;
32705;SDS011;19094;50.972;3.538;2023-04-24T09:44:22;19.05;;;6.90;;
32705;SDS011;19094;50.972;3.538;2023-04-24T09:46:50;13.68;;;6.40;;
32705;SDS011;19094;50.972;3.538;2023-04-24T09:49:23;16.83;;;5.78;;
32705;SDS011;19094;50.972;3.538;2023-04-24T09:51:50;11.13;;;6.47;;
32705;SDS011;19094;50.972;3.538;2023-04-24T09:54:17;13.15;;;7.00;;
32705;SDS011;19094;50.972;3.538;2023-04-24T09:56:45;16.23;;;6.85;;
32705;SDS011;19094;50.972;3.538;2023-04-24T09:59:13;19.58;;;6.20;;
32705;SDS011;19094;50.972;3.538;2023-04-24T10:01:40;11.70;;;6.43;;
32705;SDS011;19094;50.972;3.538;2023-04-24T10:04:28;16.60;;;6.45;;
32705;SDS011;19094;50.972;3.538;2023-04-24T10:06:54;13.25;;;5.47;;
32705;SDS011;19094;50.972;3.538;2023-04-24T10:09:22;18.02;;;6.40;;
32705;SDS011;19094;50.972;3.538;2023-04-24T10:11:50;17.83;;;6.70;;
32705;SDS011;19094;50.972;3.538;2023-04-24T10:14:17;12.30;;;6.20;;
32705;SDS011;19094;50.972;3.538;2023-04-24T10:16:45;14.88;;;6.65;;
32705;SDS011;19094;50.972;3.538;2023-04-24T10:19:14;22.40;;;7.07;;
32705;SDS011;19094;50.972;3.538;2023-04-24T10:21:41;15.63;;;6.65;;
32705;SDS011;19094;50.972;3.538;2023-04-24T10:24:11;20.92;;;7.95;;
32705;SDS011;19094;50.972;3.538;2023-04-24T10:26:42;14.55;;;7.25;;
32705;SDS011;19094;50.972;3.538;2023-04-24T10:29:10;16.42;;;7.60;;
32705;SDS011;19094;50.972;3.538;2023-04-24T10:31:37;15.63;;;6.88;;
32705;SDS011;19094;50.972;3.538;2023-04-24T10:34:06;14.73;;;6.63;;
32705;SDS011;19094;50.972;3.538;2023-04-24T10:36:34;14.55;;;6.35;;
32705;SDS011;19094;50.972;3.538;2023-04-24T10:39:05;14.63;;;5.97;;
32705;SDS011;19094;50.972;3.538;2023-04-24T10:41:36;16.65;;;7.28;;
32705;SDS011;19094;50.972;3.538;2023-04-24T10:44:09;12.68;;;6.40;;
32705;SDS011;19094;50.972;3.538;2023-04-24T10:46:39;15.15;;;6.18;;
32705;SDS011;19094;50.972;3.538;2023-04-24T10:49:09;18.15;;;6.20;;
32705;SDS011;19094;50.972;3.538;2023-04-24T10:56:51;17.65;;;7.10;;
32705;SDS011;19094;50.972;3.538;2023-04-24T10:59:27;12.02;;;6.00;;
32705;SDS011;19094;50.972;3.538;2023-04-24T11:01:59;12.77;;;5.75;;
32705;SDS011;19094;50.972;3.538;2023-04-24T11:04:29;12.50;;;5.78;;
32705;SDS011;19094;50.972;3.538;2023-04-24T11:06:56;9.95;;;5.20;;
32705;SDS011;19094;50.972;3.538;2023-04-24T11:09:22;16.75;;;6.10;;
32705;SDS011;19094;50.972;3.538;2023-04-24T11:11:51;8.45;;;4.90;;
32705;SDS011;19094;50.972;3.538;2023-04-24T11:17:29;15.52;;;6.38;;
32705;SDS011;19094;50.972;3.538;2023-04-24T11:20:03;10.60;;;5.75;;
32705;SDS011;19094;50.972;3.538;2023-04-24T11:22:35;12.15;;;5.07;;
32705;SDS011;19094;50.972;3.538;2023-04-24T11:25:04;10.57;;;5.80;;
32705;SDS011;19094;50.972;3.538;2023-04-24T11:27:34;12.50;;;6.07;;
32705;SDS011;19094;50.972;3.538;2023-04-24T11:30:08;11.23;;;5.05;;
32705;SDS011;19094;50.972;3.538;2023-04-24T11:37:41;9.50;;;4.68;;
32705;SDS011;19094;50.972;3.538;2023-04-24T11:40:18;10.23;;;4.10;;
32705;SDS011;19094;50.972;3.538;2023-04-24T11:42:49;9.93;;;4.28;;
32705;SDS011;19094;50.972;3.538;2023-04-24T11:45:25;8.38;;;4.80;;
32705;SDS011;19094;50.972;3.538;2023-04-24T11:47:52;11.10;;;5.18;;
32705;SDS011;19094;50.972;3.538;2023-04-24T11:50:20;9.15;;;4.05;;
32705;SDS011;19094;50.972;3.538;2023-04-24T11:52:48;12.98;;;4.43;;
32705;SDS011;19094;50.972;3.538;2023-04-24T11:57:43;13.15;;;3.95;;
32705;SDS011;19094;50.972;3.538;2023-04-24T12:00:17;9.63;;;3.72;;
32705;SDS011;19094;50.972;3.538;2023-04-24T12:02:43;8.48;;;3.80;;
32705;SDS011;19094;50.972;3.538;2023-04-24T12:05:12;6.97;;;4.03;;
32705;SDS011;19094;50.972;3.538;2023-04-24T12:07:48;7.95;;;3.83;;
32705;SDS011;19094;50.972;3.538;2023-04-24T12:10:19;18.70;;;4.72;;
32705;SDS011;19094;50.972;3.538;2023-04-24T12:12:48;13.75;;;4.18;;
32705;SDS011;19094;50.972;3.538;2023-04-24T12:15:16;10.35;;;3.90;;
32705;SDS011;19094;50.972;3.538;2023-04-24T12:17:43;9.77;;;3.72;;
32705;SDS011;19094;50.972;3.538;2023-04-24T12:20:10;13.98;;;4.88;;
32705;SDS011;19094;50.972;3.538;2023-04-24T12:22:47;8.25;;;3.92;;
32705;SDS011;19094;50.972;3.538;2023-04-24T12:25:19;17.38;;;4.00;;
32705;SDS011;19094;50.972;3.538;2023-04-24T12:27:46;10.65;;;3.80;;
32705;SDS011;19094;50.972;3.538;2023-04-24T12:30:17;7.03;;;3.67;;
32705;SDS011;19094;50.972;3.538;2023-04-24T12:32:44;10.55;;;3.30;;
32705;SDS011;19094;50.972;3.538;2023-04-24T12:35:18;8.57;;;3.20;;
32705;SDS011;19094;50.972;3.538;2023-04-24T12:37:48;9.68;;;3.20;;
32705;SDS011;19094;50.972;3.538;2023-04-24T12:40:14;9.57;;;3.60;;
32705;SDS011;19094;50.972;3.538;2023-04-24T12:42:45;9.85;;;3.72;;
32705;SDS011;19094;50.972;3.538;2023-04-24T12:45:14;9.40;;;3.10;;
32705;SDS011;19094;50.972;3.538;2023-04-24T12:47:42;7.22;;;2.95;;
32705;SDS011;19094;50.972;3.538;2023-04-24T12:50:10;7.28;;;2.60;;
32705;SDS011;19094;50.972;3.538;2023-04-24T12:52:37;8.15;;;2.55;;
32705;SDS011;19094;50.972;3.538;2023-04-24T12:55:04;5.85;;;2.45;;
32705;SDS011;19094;50.972;3.538;2023-04-24T12:57:33;8.63;;;2.00;;
32705;SDS011;19094;50.972;3.538;2023-04-24T12:59:59;11.05;;;2.25;;
32705;SDS011;19094;50.972;3.538;2023-04-24T13:02:27;6.65;;;1.63;;
32705;SDS011;19094;50.972;3.538;2023-04-24T13:04:55;6.00;;;2.03;;
32705;SDS011;19094;50.972;3.538;2023-04-24T13:07:21;9.43;;;4.10;;
32705;SDS011;19094;50.972;3.538;2023-04-24T13:09:47;4.47;;;2.05;;
32705;SDS011;19094;50.972;3.538;2023-04-24T13:12:15;4.93;;;2.25;;
32705;SDS011;19094;50.972;3.538;2023-04-24T13:14:40;4.10;;;2.05;;
32705;SDS011;19094;50.972;3.538;2023-04-24T13:17:06;6.30;;;1.98;;
32705;SDS011;19094;50.972;3.538;2023-04-24T13:19:42;4.55;;;1.95;;
32705;SDS011;19094;50.972;3.538;2023-04-24T13:22:09;6.55;;;2.03;;
32705;SDS011;19094;50.972;3.538;2023-04-24T13:24:36;6.95;;;2.30;;
32705;SDS011;19094;50.972;3.538;2023-04-24T13:27:03;4.72;;;2.20;;
32705;SDS011;19094;50.972;3.538;2023-04-24T13:29:28;2.47;;;1.30;;
32705;SDS011;19094;50.972;3.538;2023-04-24T13:31:54;4.32;;;1.50;;
32705;SDS011;19094;50.972;3.538;2023-04-24T13:34:24;5.22;;;1.60;;
32705;SDS011;19094;50.972;3.538;2023-04-24T13:36:51;2.97;;;1.10;;
32705;SDS011;19094;50.972;3.538;2023-04-24T13:39:18;5.97;;;2.20;;
32705;SDS011;19094;50.972;3.538;2023-04-24T13:41:44;2.33;;;1.20;;
32705;SDS011;19094;50.972;3.538;2023-04-24T13:44:12;4.30;;;1.25;;
32705;SDS011;19094;50.972;3.538;2023-04-24T13:46:37;2.75;;;1.30;;
32705;SDS011;19094;50.972;3.538;2023-04-24T13:49:03;4.47;;;1.42;;
32705;SDS011;19094;50.972;3.538;2023-04-24T13:51:29;1.95;;;1.00;;
32705;SDS011;19094;50.972;3.538;2023-04-24T13:53:55;11.00;;;1.52;;
32705;SDS011;19094;50.972;3.538;2023-04-24T13:56:21;3.05;;;1.40;;
32705;SDS011;19094;50.972;3.538;2023-04-24T13:58:47;2.63;;;1.30;;
32705;SDS011;19094;50.972;3.538;2023-04-24T14:01:13;4.15;;;1.48;;
32705;SDS011;19094;50.972;3.538;2023-04-24T14:03:40;2.58;;;0.95;;
32705;SDS011;19094;50.972;3.538;2023-04-24T14:06:07;4.05;;;1.42;;
32705;SDS011;19094;50.972;3.538;2023-04-24T14:08:33;4.30;;;1.55;;
32705;SDS011;19094;50.972;3.538;2023-04-24T14:10:58;3.28;;;1.20;;
32705;SDS011;19094;50.972;3.538;2023-04-24T14:13:24;2.08;;;1.10;;
32705;SDS011;19094;50.972;3.538;2023-04-24T14:15:50;5.00;;;1.50;;
32705;SDS011;19094;50.972;3.538;2023-04-24T14:18:17;2.17;;;1.40;;
32705;SDS011;19094;50.972;3.538;2023-04-24T14:20:43;5.35;;;1.85;;
32705;SDS011;19094;50.972;3.538;2023-04-24T14:23:09;8.38;;;2.13;;
32705;SDS011;19094;50.972;3.538;2023-04-24T14:25:35;4.35;;;1.60;;
32705;SDS011;19094;50.972;3.538;2023-04-24T14:28:01;4.25;;;1.20;;
32705;SDS011;19094;50.972;3.538;2023-04-24T14:30:27;4.30;;;1.80;;
32705;SDS011;19094;50.972;3.538;2023-04-24T14:32:52;5.63;;;1.58;;
32705;SDS011;19094;50.972;3.538;2023-04-24T14:35:18;3.90;;;1.40;;
32705;SDS011;19094;50.972;3.538;2023-04-24T14:37:44;4.20;;;1.50;;
32705;SDS011;19094;50.972;3.538;2023-04-24T14:40:10;4.80;;;2.10;;
32705;SDS011;19094;50.972;3.538;2023-04-24T14:42:36;5.60;;;1.70;;
32705;SDS011;19094;50.972;3.538;2023-04-24T14:45:02;6.20;;;1.42;;
32705;SDS011;19094;50.972;3.538;2023-04-24T14:47:28;5.22;;;1.45;;
32705;SDS011;19094;50.972;3.538;2023-04-24T14:49:54;3.35;;;1.30;;